Dorothea — WDC4584 — position and weather

sailwx.info

Track history (hours):
 
Tides and Currents Weather Stations Pressure Air Temp Water Temp Dewpoint Dewpoint Depression Visibility Wind Speed Wind Dir Waves Ship Positions

Dorothea

Owner: Dorothea Corp., Seattle, WA. More information available from US FCC via Universal Licensing System and Coast Guard Vessel Documentation Center.

Last reported at 2016-Apr-29 01:33 UTC. Time now 2016-Apr-29 01:56 UTC.
Position N 48°31' W 122°39'.

Length 26 m.

Type: Fishing. MMSI: 367026930.

Date/timePositionNaut miles runAvg speedWind from/ knotsBaromVisibWave heightAir tempDewpointWater temp
2016-Apr-29 01:33N 48°31' W 122°39'0 0.0
2016-Apr-29 00:33N 48°31' W 122°39'0 0.0
2016-Apr-28 23:33N 48°31' W 122°39'0 0.0
2016-Apr-28 22:33N 48°31' W 122°39'0 0.0
2016-Apr-28 21:33N 48°31' W 122°39'0 0.0
2016-Apr-28 20:33N 48°31' W 122°39'0 0.0
2016-Apr-28 19:33N 48°31' W 122°39'0 0.0
2016-Apr-28 18:33N 48°31' W 122°39'0 0.0
2016-Apr-28 17:33N 48°31' W 122°39'0 0.0
2016-Apr-28 16:33N 48°31' W 122°39'0 0.0
2016-Apr-28 15:33N 48°31' W 122°39'0 0.0
2016-Apr-28 14:33N 48°31' W 122°39'0 0.0
2016-Apr-28 13:33N 48°31' W 122°39'0 0.0
2016-Apr-28 12:33N 48°31' W 122°39'0 0.0
2016-Apr-28 11:33N 48°31' W 122°39'0 0.0
2016-Apr-28 10:33N 48°31' W 122°39'0 0.0
2016-Apr-28 09:33N 48°31' W 122°39'0 0.0
2016-Apr-28 08:33N 48°31' W 122°39'0 0.0
2016-Apr-28 07:33N 48°31' W 122°39'0 0.0
2016-Apr-28 06:33N 48°31' W 122°39'0 0.0
2016-Apr-28 05:33N 48°31' W 122°39'0 0.0
2016-Apr-28 04:33N 48°31' W 122°39'0 0.0
2016-Apr-28 03:33N 48°31' W 122°39'0 0.0
2016-Apr-28 02:33N 48°31' W 122°39'0 0.0
2016-Apr-28 01:33N 48°31' W 122°39'0 0.0
2016-Apr-28 00:33N 48°31' W 122°39'2 2.4
2016-Apr-27 23:33N 48°31' W 122°42'7 6.7
2016-Apr-27 22:33N 48°24' W 122°44'6 6.1
2016-Apr-27 21:31N 48°18' W 122°46'25 8.5
2016-Apr-27 18:33N 47°56' W 122°29'8 7.5
2016-Apr-27 17:29N 47°48' W 122°25'7 7.1
2016-Apr-27 16:34N 47°41' W 122°25'2 2.4
2016-Apr-27 15:34N 47°40' W 122°23'0 0.0
2016-Apr-27 14:33N 47°40' W 122°23'0 0.0
2016-Apr-27 13:33N 47°40' W 122°23'0 0.0
2016-Apr-27 12:33N 47°40' W 122°23'0 0.0
2016-Apr-27 11:33N 47°40' W 122°23'0 0.0
2016-Apr-27 10:33N 47°40' W 122°23'0 0.0
2016-Apr-27 09:33N 47°40' W 122°23'0 0.0
2016-Apr-27 08:33N 47°40' W 122°23'0 0.0
2016-Apr-27 07:33N 47°40' W 122°23'0 0.0
2016-Apr-27 06:33N 47°40' W 122°23'0 0.0
2016-Apr-27 05:33N 47°40' W 122°23'0 0.0
2016-Apr-27 04:33N 47°40' W 122°23'0 0.0
2016-Apr-27 03:34N 47°40' W 122°23'0 0.0
2016-Apr-27 02:33N 47°40' W 122°23'0 0.0
2016-Apr-27 01:33N 47°40' W 122°23'0 0.0
2016-Apr-27 00:33N 47°40' W 122°23'0 0.0
2016-Apr-26 23:33N 47°40' W 122°23'0 0.0
2016-Apr-26 22:33N 47°40' W 122°23'0 0.0
2016-Apr-26 21:33N 47°40' W 122°23'0 0.0
2016-Apr-26 20:33N 47°40' W 122°23'0 0.0
2016-Apr-26 19:34N 47°40' W 122°23'0 0.0
2016-Apr-26 18:33N 47°40' W 122°23'0 0.0
2016-Apr-26 17:33N 47°40' W 122°23'0 0.0
2016-Apr-26 16:33N 47°40' W 122°23'0 0.0
2016-Apr-26 15:33N 47°40' W 122°23'0 0.0
2016-Apr-26 14:33N 47°40' W 122°23'0 0.0
2016-Apr-26 13:33N 47°40' W 122°23'0 0.0
2016-Apr-26 12:33N 47°40' W 122°23'0 0.0
2016-Apr-26 11:33N 47°40' W 122°23'0 0.0
2016-Apr-26 10:33N 47°40' W 122°23'0 0.0
2016-Apr-26 09:33N 47°40' W 122°23'0 0.0
2016-Apr-26 08:33N 47°40' W 122°23'0 0.0
2016-Apr-26 07:33N 47°40' W 122°23'0 0.0
2016-Apr-26 06:33N 47°40' W 122°23'0 0.0
2016-Apr-26 05:33N 47°40' W 122°23'0 0.0
2016-Apr-26 04:33N 47°40' W 122°23'0 0.0
2016-Apr-26 03:33N 47°40' W 122°23'0 0.0
2016-Apr-26 02:33N 47°40' W 122°23'0 0.0
2016-Apr-26 01:33N 47°40' W 122°23'0 0.0
2016-Apr-26 00:33N 47°40' W 122°23'0 0.0
2016-Apr-25 23:33N 47°40' W 122°23'0 0.0
2016-Apr-25 22:33N 47°40' W 122°23'0 0.0
2016-Apr-25 21:33N 47°40' W 122°23'0 0.0
2016-Apr-25 20:33N 47°40' W 122°23'0 0.0
2016-Apr-25 19:33N 47°40' W 122°23'  
Track history (hours):
 
Tides and Currents Weather Stations Pressure Air Temp Water Temp Dewpoint Dewpoint Depression Visibility Wind Speed Wind Dir Waves Ship Positions

Dorothea

Owner: Dorothea Corp., Seattle, WA. More information available from US FCC via Universal Licensing System and Coast Guard Vessel Documentation Center.

Last reported at 2016-Apr-29 01:33 UTC. Time now 2016-Apr-29 01:56 UTC.
Position N 48°31' W 122°39'.

Length 26 m.

Type: Fishing. MMSI: 367026930.

Date/timePositionNaut miles runAvg speedWind from/ knotsBaromVisibWave heightAir tempDewpointWater temp
2016-Apr-29 01:33N 48°31' W 122°39'0 0.0
2016-Apr-29 00:33N 48°31' W 122°39'0 0.0
2016-Apr-28 23:33N 48°31' W 122°39'0 0.0
2016-Apr-28 22:33N 48°31' W 122°39'0 0.0
2016-Apr-28 21:33N 48°31' W 122°39'0 0.0
2016-Apr-28 20:33N 48°31' W 122°39'0 0.0
2016-Apr-28 19:33N 48°31' W 122°39'0 0.0
2016-Apr-28 18:33N 48°31' W 122°39'0 0.0
2016-Apr-28 17:33N 48°31' W 122°39'0 0.0
2016-Apr-28 16:33N 48°31' W 122°39'0 0.0
2016-Apr-28 15:33N 48°31' W 122°39'0 0.0
2016-Apr-28 14:33N 48°31' W 122°39'0 0.0
2016-Apr-28 13:33N 48°31' W 122°39'0 0.0
2016-Apr-28 12:33N 48°31' W 122°39'0 0.0
2016-Apr-28 11:33N 48°31' W 122°39'0 0.0
2016-Apr-28 10:33N 48°31' W 122°39'0 0.0
2016-Apr-28 09:33N 48°31' W 122°39'0 0.0
2016-Apr-28 08:33N 48°31' W 122°39'0 0.0
2016-Apr-28 07:33N 48°31' W 122°39'0 0.0
2016-Apr-28 06:33N 48°31' W 122°39'0 0.0
2016-Apr-28 05:33N 48°31' W 122°39'0 0.0
2016-Apr-28 04:33N 48°31' W 122°39'0 0.0
2016-Apr-28 03:33N 48°31' W 122°39'0 0.0
2016-Apr-28 02:33N 48°31' W 122°39'0 0.0
2016-Apr-28 01:33N 48°31' W 122°39'0 0.0
2016-Apr-28 00:33N 48°31' W 122°39'2 2.4
2016-Apr-27 23:33N 48°31' W 122°42'7 6.7
2016-Apr-27 22:33N 48°24' W 122°44'6 6.1
2016-Apr-27 21:31N 48°18' W 122°46'25 8.5
2016-Apr-27 18:33N 47°56' W 122°29'8 7.5
2016-Apr-27 17:29N 47°48' W 122°25'7 7.1
2016-Apr-27 16:34N 47°41' W 122°25'2 2.4
2016-Apr-27 15:34N 47°40' W 122°23'0 0.0
2016-Apr-27 14:33N 47°40' W 122°23'0 0.0
2016-Apr-27 13:33N 47°40' W 122°23'0 0.0
2016-Apr-27 12:33N 47°40' W 122°23'0 0.0
2016-Apr-27 11:33N 47°40' W 122°23'0 0.0
2016-Apr-27 10:33N 47°40' W 122°23'0 0.0
2016-Apr-27 09:33N 47°40' W 122°23'0 0.0
2016-Apr-27 08:33N 47°40' W 122°23'0 0.0
2016-Apr-27 07:33N 47°40' W 122°23'0 0.0
2016-Apr-27 06:33N 47°40' W 122°23'0 0.0
2016-Apr-27 05:33N 47°40' W 122°23'0 0.0
2016-Apr-27 04:33N 47°40' W 122°23'0 0.0
2016-Apr-27 03:34N 47°40' W 122°23'0 0.0
2016-Apr-27 02:33N 47°40' W 122°23'0 0.0
2016-Apr-27 01:33N 47°40' W 122°23'0 0.0
2016-Apr-27 00:33N 47°40' W 122°23'0 0.0
2016-Apr-26 23:33N 47°40' W 122°23'0 0.0
2016-Apr-26 22:33N 47°40' W 122°23'0 0.0
2016-Apr-26 21:33N 47°40' W 122°23'0 0.0
2016-Apr-26 20:33N 47°40' W 122°23'0 0.0
2016-Apr-26 19:34N 47°40' W 122°23'0 0.0
2016-Apr-26 18:33N 47°40' W 122°23'0 0.0
2016-Apr-26 17:33N 47°40' W 122°23'0 0.0
2016-Apr-26 16:33N 47°40' W 122°23'0 0.0
2016-Apr-26 15:33N 47°40' W 122°23'0 0.0
2016-Apr-26 14:33N 47°40' W 122°23'0 0.0
2016-Apr-26 13:33N 47°40' W 122°23'0 0.0
2016-Apr-26 12:33N 47°40' W 122°23'0 0.0
2016-Apr-26 11:33N 47°40' W 122°23'0 0.0
2016-Apr-26 10:33N 47°40' W 122°23'0 0.0
2016-Apr-26 09:33N 47°40' W 122°23'0 0.0
2016-Apr-26 08:33N 47°40' W 122°23'0 0.0
2016-Apr-26 07:33N 47°40' W 122°23'0 0.0
2016-Apr-26 06:33N 47°40' W 122°23'0 0.0
2016-Apr-26 05:33N 47°40' W 122°23'0 0.0
2016-Apr-26 04:33N 47°40' W 122°23'0 0.0
2016-Apr-26 03:33N 47°40' W 122°23'0 0.0
2016-Apr-26 02:33N 47°40' W 122°23'0 0.0
2016-Apr-26 01:33N 47°40' W 122°23'0 0.0
2016-Apr-26 00:33N 47°40' W 122°23'0 0.0
2016-Apr-25 23:33N 47°40' W 122°23'0 0.0
2016-Apr-25 22:33N 47°40' W 122°23'0 0.0
2016-Apr-25 21:33N 47°40' W 122°23'0 0.0
2016-Apr-25 20:33N 47°40' W 122°23'0 0.0
2016-Apr-25 19:33N 47°40' W 122°23'  

Dump ship's entire track history